Time;durP1;ratioP1;P1;durP2;ratioP2;P2;SDS_P1;SDS_P2;PMS_P1;PMS_P2;Temp;Humidity;BMP_temperature;BMP_pressure;BME280_temperature;BME280_humidity;BME280_pressure;Samples;Min_cycle;Max_cycle;Signal;HPM_P1;HPM_P2
2022/11/10 00:00:56;;;;;;;50.00;29.87;;;;;;;-141.28;100.00;51005.47;5114502;28;20436;-76
2022/11/10 00:03:23;;;;;;;48.80;28.93;;;;;;;-141.28;100.00;51013.31;5113871;28;20207;-75
2022/11/10 00:05:50;;;;;;;48.20;29.23;;;;;;;-141.28;100.00;50820.94;5114351;28;20440;-76
2022/11/10 00:08:17;;;;;;;48.03;28.53;;;;;;;-141.28;100.00;51072.22;5117117;28;20227;-75
2022/11/10 00:11:00;;;;;;;50.33;29.20;;;;;;;-141.28;100.00;51052.59;5118057;28;20866;-76
2022/11/10 00:13:30;;;;;;;53.87;30.27;;;;;;;-141.28;100.00;51064.38;5118895;28;20609;-77
2022/11/10 00:18:45;;;;;;;55.00;31.60;;;;;;;-141.28;100.00;51015.28;5118895;28;20444;-74
2022/11/10 00:21:14;;;;;;;52.50;30.13;;;;;;;-141.28;100.00;51036.88;5116750;28;20647;-77
2022/11/10 00:23:42;;;;;;;57.90;31.40;;;;;;;-141.28;100.00;51095.78;5118509;28;20501;-74
2022/11/10 00:26:17;;;;;;;61.53;33.23;;;;;;;-141.28;100.00;51076.16;5119142;28;20448;-74
2022/11/10 00:28:46;;;;;;;61.17;35.17;;;;;;;-141.28;100.00;51162.53;5116984;28;20441;-75
2022/11/10 00:31:14;;;;;;;63.00;35.43;;;;;;;-141.28;100.00;51315.66;5118107;28;20506;-75
2022/11/10 00:33:44;;;;;;;63.97;36.67;;;;;;;-141.28;100.00;51358.88;5104382;28;20451;-74
2022/11/10 00:36:11;;;;;;;62.27;32.43;;;;;;;-141.28;100.00;51331.38;5117579;28;20726;-79
2022/11/10 00:38:38;;;;;;;56.03;31.87;;;;;;;-141.28;100.00;51386.34;5112937;28;20448;-78
2022/11/10 00:41:05;;;;;;;60.77;34.93;;;;;;;-141.28;100.00;51409.91;5113589;28;20509;-76
2022/11/10 00:43:33;;;;;;;63.20;35.37;;;;;;;-141.28;100.00;51437.41;5113657;28;20444;-76
2022/11/10 00:46:00;;;;;;;58.17;35.23;;;;;;;-141.28;100.00;51457.03;5113700;28;20463;-77
2022/11/10 00:48:27;;;;;;;64.47;35.97;;;;;;;-141.28;100.00;51492.38;5113022;28;20444;-77
2022/11/10 00:50:54;;;;;;;70.90;35.33;;;;;;;-141.28;100.00;51504.16;5113607;28;20445;-75
2022/11/10 00:53:21;;;;;;;65.53;35.00;;;;;;;-141.28;100.00;51449.19;5113172;28;21140;-79
2022/11/10 00:55:48;;;;;;;66.67;37.13;;;;;;;-141.28;100.00;51356.91;5112150;28;20843;-77
2022/11/10 00:58:15;;;;;;;67.60;37.10;;;;;;;-141.28;100.00;51484.53;5113415;28;20444;-76
2022/11/10 01:00:43;;;;;;;70.90;37.90;;;;;;;-141.28;100.00;51484.53;5113228;28;20528;-78
2022/11/10 01:03:14;;;;;;;68.67;38.03;;;;;;;-141.28;100.00;51537.53;5113645;28;20859;-75
2022/11/10 01:05:40;;;;;;;64.20;38.43;;;;;;;-141.28;100.00;51582.69;5113038;28;20496;-78
2022/11/10 01:08:07;;;;;;;59.53;34.73;;;;;;;-141.28;100.00;51614.13;5113348;28;20456;-76
2022/11/10 01:10:34;;;;;;;67.60;35.00;;;;;;;-141.28;100.00;51641.59;5113438;28;20468;-76
2022/11/10 01:13:01;;;;;;;55.93;33.27;;;;;;;-141.28;100.00;51551.28;5112833;28;20837;-78
2022/11/10 01:15:28;;;;;;;62.53;36.53;;;;;;;-141.28;100.00;51523.78;5113625;28;20445;-74
2022/11/10 01:17:57;;;;;;;65.83;36.83;;;;;;;-141.28;100.00;51547.34;5113175;28;20473;-76
2022/11/10 01:20:24;;;;;;;71.37;36.37;;;;;;;-141.28;100.00;51555.22;5113100;28;20441;-78
2022/11/10 01:22:51;;;;;;;69.50;37.77;;;;;;;-141.28;100.00;51512.00;5111843;28;20452;-75
2022/11/10 01:25:18;;;;;;;78.07;40.10;;;;;;;-141.28;100.00;51500.22;5101078;28;20498;-75
2022/11/10 01:27:45;;;;;;;70.57;37.53;;;;;;;-141.28;100.00;51382.44;5112800;28;20449;-80
2022/11/10 01:30:13;;;;;;;65.87;35.53;;;;;;;-141.28;100.00;51362.78;5112175;28;20505;-75
2022/11/10 01:32:40;;;;;;;62.33;35.10;;;;;;;-141.28;100.00;51327.44;5113106;28;20480;-76
2022/11/10 01:35:09;;;;;;;71.50;36.10;;;;;;;-141.28;100.00;51213.56;5114926;28;20469;-76
2022/11/10 01:37:36;;;;;;;62.07;34.43;;;;;;;-141.28;100.00;51174.31;5112483;28;20437;-77
2022/11/10 01:40:04;;;;;;;59.83;35.10;;;;;;;-141.28;100.00;51213.56;5112808;28;20448;-75
2022/11/10 01:42:44;;;;;;;59.70;35.53;;;;;;;-141.28;100.00;50981.91;5113184;28;20982;-76
2022/11/10 01:45:49;;;;;;;58.10;33.37;;;;;;;-141.28;100.00;50962.28;5112731;28;20445;-76
2022/11/10 01:48:19;;;;;;;60.27;32.30;;;;;;;-141.28;100.00;50875.91;5112470;28;20887;-79
2022/11/10 01:50:49;;;;;;;63.00;33.97;;;;;;;-141.28;100.00;50901.44;5112140;28;20978;-78
2022/11/10 01:53:23;;;;;;;59.60;34.50;;;;;;;-141.28;100.00;50932.84;5112217;28;20583;-78
2022/11/10 01:55:51;;;;;;;58.97;34.07;;;;;;;-141.28;100.00;50923.03;5112466;28;20501;-78
2022/11/10 01:58:23;;;;;;;62.63;34.30;;;;;;;-141.28;100.00;50946.59;5112494;28;20505;-77
2022/11/10 02:00:52;;;;;;;60.83;34.97;;;;;;;-141.28;100.00;50907.31;5112211;28;20502;-78
2022/11/10 02:03:25;;;;;;;55.97;34.43;;;;;;;-141.28;100.00;50942.66;5112077;28;20443;-78
2022/11/10 02:05:55;;;;;;;52.27;32.27;;;;;;;-141.28;100.00;50928.91;5112022;28;20449;-76
2022/11/10 02:08:24;;;;;;;65.93;34.20;;;;;;;-141.28;100.00;50946.59;5098161;28;20450;-75
2022/11/10 02:10:51;;;;;;;54.23;32.83;;;;;;;-141.28;100.00;50926.94;5103456;28;20462;-76
2022/11/10 02:13:17;;;;;;;59.73;33.27;;;;;;;-141.28;100.00;50923.03;5106386;28;20623;-75
2022/11/10 02:15:45;;;;;;;54.43;33.03;;;;;;;-141.28;100.00;50958.38;5111783;28;20876;-75
2022/11/10 02:18:12;;;;;;;53.33;31.77;;;;;;;-141.28;100.00;50946.59;5112297;28;20477;-76
2022/11/10 02:20:39;;;;;;;54.67;31.03;;;;;;;-141.28;100.00;50925.00;5111866;28;20449;-76
2022/11/10 02:23:35;;;;;;;56.67;32.27;;;;;;;-141.28;100.00;50897.50;5111767;28;20854;-76
2022/11/10 02:26:03;;;;;;;59.20;32.37;;;;;;;-141.28;100.00;50826.84;5111379;28;20834;-77
2022/11/10 02:28:33;;;;;;;54.43;30.93;;;;;;;-141.28;100.00;50813.09;5109830;28;20952;-74
2022/11/10 02:31:00;;;;;;;57.90;32.40;;;;;;;-141.28;100.00;50667.81;5111359;28;20939;-75
2022/11/10 02:33:27;;;;;;;55.87;32.77;;;;;;;-141.28;100.00;50885.72;5104793;28;20577;-76
2022/11/10 02:35:55;;;;;;;59.27;31.40;;;;;;;-141.28;100.00;50883.75;5105705;28;20445;-76
2022/11/10 02:38:24;;;;;;;56.00;30.93;;;;;;;-141.28;100.00;50887.69;5111970;28;20498;-75
2022/11/10 02:40:51;;;;;;;52.03;30.87;;;;;;;-141.28;100.00;50907.31;5111105;28;20473;-76
2022/11/10 02:43:19;;;;;;;59.83;31.33;;;;;;;-141.28;100.00;50950.50;5111349;28;20453;-76
2022/11/10 02:45:46;;;;;;;52.97;30.43;;;;;;;-141.28;100.00;50930.88;5111011;28;20452;-77
2022/11/10 02:48:15;;;;;;;71.60;35.47;;;;;;;-141.28;100.00;50911.25;5111684;28;20513;-76
2022/11/10 02:50:42;;;;;;;57.90;32.57;;;;;;;-141.28;100.00;50930.88;5112345;28;20455;-76
2022/11/10 02:53:09;;;;;;;54.87;32.87;;;;;;;-141.28;100.00;50958.38;5117210;28;20530;-76
2022/11/10 02:55:39;;;;;;;59.10;32.23;;;;;;;-141.28;100.00;50985.84;5115612;28;21757;-76
2022/11/10 02:58:07;;;;;;;57.17;33.20;;;;;;;-141.28;100.00;50997.63;5115652;28;20862;-76
2022/11/10 03:00:33;;;;;;;59.43;32.40;;;;;;;-141.28;100.00;50989.78;5115680;28;20459;-76
2022/11/10 03:03:02;;;;;;;55.33;31.57;;;;;;;-141.28;100.00;50887.69;5115955;28;20452;-77
2022/11/10 03:05:29;;;;;;;62.37;33.33;;;;;;;-141.28;100.00;51031.00;5115606;28;20448;-79
2022/11/10 03:07:58;;;;;;;67.37;35.03;;;;;;;-141.28;100.00;51013.31;5115218;28;20862;-76
2022/11/10 03:10:25;;;;;;;70.37;36.53;;;;;;;-141.28;100.00;51046.69;5115180;28;20506;-76
2022/11/10 03:12:55;;;;;;;68.20;38.10;;;;;;;-141.28;100.00;51036.88;5115432;28;20575;-76
2022/11/10 03:15:23;;;;;;;81.17;39.20;;;;;;;-141.28;100.00;51019.22;5115438;28;20485;-76
2022/11/10 03:17:50;;;;;;;67.93;37.23;;;;;;;-141.28;100.00;51080.06;5115168;28;20478;-75
2022/11/10 03:20:17;;;;;;;74.93;38.43;;;;;;;-141.28;100.00;51119.34;5115217;28;20869;-76
2022/11/10 03:22:44;;;;;;;66.83;37.83;;;;;;;-141.28;100.00;51056.53;5115354;28;20452;-76
2022/11/10 03:25:12;;;;;;;72.90;39.07;;;;;;;-141.28;100.00;51095.78;5114868;28;20519;-80
2022/11/10 03:27:39;;;;;;;77.43;37.77;;;;;;;-141.28;100.00;51121.31;5115043;28;21042;-76
2022/11/10 03:30:12;;;;;;;71.03;37.83;;;;;;;-141.28;100.00;51144.88;5114211;28;20806;-76
2022/11/10 03:32:39;;;;;;;78.33;39.83;;;;;;;-141.28;100.00;51154.69;5115884;28;20917;-79
2022/11/10 03:35:06;;;;;;;73.73;37.43;;;;;;;-141.28;100.00;51133.09;5115042;28;20440;-75
2022/11/10 03:37:33;;;;;;;71.70;37.03;;;;;;;-141.28;100.00;51101.66;5114396;28;20552;-74
2022/11/10 03:40:00;;;;;;;75.60;38.37;;;;;;;-141.28;100.00;51127.19;5114786;28;20445;-76
2022/11/10 03:42:27;;;;;;;75.30;35.80;;;;;;;-141.28;100.00;51138.97;5115169;28;20440;-77
2022/11/10 03:44:54;;;;;;;82.57;37.43;;;;;;;-141.28;100.00;51044.75;5117637;28;20459;-75
2022/11/10 03:47:22;;;;;;;72.73;36.43;;;;;;;-141.28;100.00;51115.41;5122227;28;20873;-75
2022/11/10 03:49:49;;;;;;;69.27;37.13;;;;;;;-141.28;100.00;51127.19;5124748;28;20926;-73
2022/11/10 03:52:17;;;;;;;73.73;37.87;;;;;;;-141.28;100.00;51107.56;5122520;28;20871;-74
2022/11/10 03:54:44;;;;;;;85.73;38.93;;;;;;;-141.28;100.00;51135.03;5123629;28;20437;-73
2022/11/10 03:57:10;;;;;;;64.37;34.77;;;;;;;-141.28;100.00;51160.56;5123546;28;20449;-75
2022/11/10 03:59:38;;;;;;;72.17;36.17;;;;;;;-141.28;100.00;51221.44;5116254;28;20505;-78
2022/11/10 04:02:04;;;;;;;68.60;37.77;;;;;;;-141.28;100.00;51170.38;5114805;28;20548;-77
2022/11/10 04:10:04;;;;;;;79.80;39.47;;;;;;;-141.28;100.00;51103.63;5118329;28;20456;-76
2022/11/10 04:20:44;;;;;;;71.17;36.60;;;;;;;-141.28;100.00;50989.78;5102819;28;20433;-79
2022/11/10 04:23:33;;;;;;;78.87;39.67;;;;;;;-141.28;100.00;51032.97;5113430;28;20955;-76
2022/11/10 04:28:59;;;;;;;81.00;37.97;;;;;;;-141.28;100.00;50921.06;5041048;28;20495;-74
2022/11/10 04:31:27;;;;;;;65.67;37.60;;;;;;;-141.28;100.00;50923.03;5085660;28;20445;-78
2022/11/10 04:33:55;;;;;;;62.37;35.97;;;;;;;-141.28;100.00;51027.06;5113684;28;20480;-76
2022/11/10 04:36:26;;;;;;;53.60;28.10;;;;;;;-141.28;100.00;51080.06;5113732;28;20445;-75
2022/11/10 04:38:54;;;;;;;46.23;24.23;;;;;;;-141.28;100.00;51084.00;5114021;28;20441;-77
2022/11/10 04:41:21;;;;;;;44.80;25.87;;;;;;;-141.28;100.00;51137.00;5113656;28;20436;-76
2022/11/10 04:43:48;;;;;;;38.97;21.93;;;;;;;-141.28;100.00;51138.97;5113689;28;20486;-77
2022/11/10 04:46:22;;;;;;;37.87;21.40;;;;;;;-141.28;100.00;51144.88;5113982;28;20465;-76
2022/11/10 04:48:49;;;;;;;35.63;19.47;;;;;;;-141.28;100.00;51154.69;5115296;28;20531;-76
2022/11/10 04:51:17;;;;;;;34.57;20.73;;;;;;;-141.28;100.00;51217.50;5114184;28;20829;-75
2022/11/10 04:53:45;;;;;;;36.67;21.57;;;;;;;-141.28;100.00;51205.72;5100001;28;20658;-76
2022/11/10 04:56:14;;;;;;;40.20;22.30;;;;;;;-141.28;100.00;51190.03;5113328;28;20510;-75
2022/11/10 04:58:41;;;;;;;39.27;21.53;;;;;;;-141.28;100.00;51162.53;5113816;28;20452;-76
2022/11/10 05:01:11;;;;;;;41.27;22.90;;;;;;;-141.28;100.00;51186.09;5113633;28;21057;-75
2022/11/10 05:03:37;;;;;;;42.30;26.33;;;;;;;-141.28;100.00;51190.03;5114124;28;20452;-75
2022/11/10 05:06:05;;;;;;;44.33;25.97;;;;;;;-141.28;100.00;51166.47;5114787;28;20440;-75
2022/11/10 05:08:33;;;;;;;50.73;26.40;;;;;;;-141.28;100.00;51229.28;5121018;28;20881;-73
2022/11/10 05:11:01;;;;;;;42.87;26.27;;;;;;;-141.28;100.00;51038.84;5118727;28;20504;-77
2022/11/10 05:13:28;;;;;;;46.60;26.97;;;;;;;-141.28;100.00;51292.13;5113047;28;20476;-74
2022/11/10 05:15:55;;;;;;;61.73;31.53;;;;;;;-141.28;100.00;51288.19;5112621;28;20441;-75
2022/11/10 05:18:22;;;;;;;78.93;40.63;;;;;;;-141.28;100.00;51372.59;5113458;28;20580;-80
2022/11/10 05:20:50;;;;;;;63.03;32.37;;;;;;;-141.28;100.00;51433.47;5112533;28;20504;-77
2022/11/10 05:26:03;;;;;;;52.53;28.57;;;;;;;-141.28;100.00;51370.66;5114082;28;21084;-77
2022/11/10 05:28:30;;;;;;;52.23;25.67;;;;;;;-141.28;100.00;51146.81;5113842;28;20433;-77
2022/11/10 05:30:57;;;;;;;50.67;25.77;;;;;;;-141.28;100.00;51423.66;5113232;28;20449;-80
2022/11/10 05:33:25;;;;;;;42.00;23.87;;;;;;;-141.28;100.00;51457.03;5112420;28;20476;-78
2022/11/10 05:35:52;;;;;;;45.03;21.73;;;;;;;-141.28;100.00;51492.38;5112348;28;20498;-77
2022/11/10 05:38:19;;;;;;;40.70;23.23;;;;;;;-141.28;100.00;51547.34;5112453;28;20445;-77
2022/11/10 05:40:46;;;;;;;39.57;21.43;;;;;;;-141.28;100.00;51661.25;5112382;28;20440;-77
2022/11/10 05:43:15;;;;;;;32.27;20.27;;;;;;;-141.28;100.00;51657.31;5112495;28;20576;-75
2022/11/10 05:45:42;;;;;;;31.67;20.03;;;;;;;-141.28;100.00;51661.25;5112565;28;20487;-74
2022/11/10 05:48:08;;;;;;;32.70;19.60;;;;;;;-141.28;100.00;51794.75;5112403;28;20514;-75
2022/11/10 05:50:35;;;;;;;28.97;18.43;;;;;;;-141.28;100.00;51822.25;5112300;28;20448;-77
2022/11/10 05:53:02;;;;;;;35.97;19.67;;;;;;;-141.28;100.00;51751.56;5112799;28;20448;-76
2022/11/10 05:55:32;;;;;;;26.53;17.43;;;;;;;-141.28;100.00;51892.94;5113164;28;20448;-77
2022/11/10 05:58:00;;;;;;;31.30;18.53;;;;;;;-141.28;100.00;51920.44;5112142;28;20523;-75
2022/11/10 06:00:30;;;;;;;28.87;17.47;;;;;;;-141.28;100.00;51922.41;5112374;28;20940;-74
2022/11/10 06:03:01;;;;;;;34.93;17.57;;;;;;;-141.28;100.00;51912.59;5111303;28;20476;-74
2022/11/10 06:05:29;;;;;;;26.57;16.63;;;;;;;-141.28;100.00;51969.53;5109953;28;20924;-75
2022/11/10 06:07:57;;;;;;;29.97;17.37;;;;;;;-141.28;100.00;52048.09;5111377;28;20844;-78
2022/11/10 06:10:25;;;;;;;27.30;17.30;;;;;;;-141.28;100.00;52053.97;5112227;28;20529;-77
2022/11/10 06:12:52;;;;;;;29.03;18.90;;;;;;;-141.28;100.00;52006.84;5111970;28;20464;-76
2022/11/10 06:15:20;;;;;;;57.63;40.00;;;;;;;-141.28;100.00;51924.38;5098857;28;20533;-77
2022/11/10 06:17:48;;;;;;;55.47;35.93;;;;;;;-141.28;100.00;51621.97;5111743;28;20990;-75
2022/11/10 06:20:16;;;;;;;42.73;25.67;;;;;;;-141.28;100.00;51572.88;5111476;28;20970;-76
2022/11/10 06:22:44;;;;;;;39.40;23.43;;;;;;;-141.28;100.00;51178.25;5111319;28;20906;-77
2022/11/10 06:25:11;;;;;;;45.23;24.83;;;;;;;-141.28;100.00;50881.78;5111727;28;20455;-76
2022/11/10 06:27:42;;;;;;;41.40;23.13;;;;;;;-141.28;100.00;50691.38;5107718;28;20506;-77
2022/11/10 06:30:14;;;;;;;46.23;26.03;;;;;;;-141.28;100.00;50659.97;5111672;28;20453;-77
2022/11/10 06:32:43;;;;;;;56.50;30.43;;;;;;;-141.28;100.00;50589.31;5111535;28;20955;-78
2022/11/10 06:35:11;;;;;;;56.03;27.80;;;;;;;-141.28;100.00;50640.34;5111566;28;20868;-75
2022/11/10 06:37:38;;;;;;;59.43;28.60;;;;;;;-141.28;100.00;50707.09;5110660;28;20445;-78
2022/11/10 06:40:08;;;;;;;64.17;29.10;;;;;;;-141.28;100.00;50703.16;5111796;28;20456;-75
2022/11/10 06:42:35;;;;;;;59.13;27.53;;;;;;;-141.28;100.00;50832.72;5111744;28;20480;-73
2022/11/10 06:45:02;;;;;;;51.67;27.53;;;;;;;-141.28;100.00;50883.75;5114436;28;20492;-75
2022/11/10 06:47:30;;;;;;;42.93;25.67;;;;;;;-141.28;100.00;50887.69;5111490;28;20452;-75
2022/11/10 06:49:57;;;;;;;48.07;27.57;;;;;;;-141.28;100.00;50930.88;5111900;28;20444;-74
2022/11/10 06:52:27;;;;;;;56.80;29.00;;;;;;;-141.28;100.00;51080.06;5112068;28;20448;-76
2022/11/10 06:54:53;;;;;;;60.57;30.57;;;;;;;-141.28;100.00;51131.13;5111961;28;20441;-77
2022/11/10 06:57:20;;;;;;;68.30;31.77;;;;;;;-141.28;100.00;51386.34;5112661;28;20942;-75
2022/11/10 06:59:47;;;;;;;70.43;33.00;;;;;;;-141.28;100.00;51590.56;5118825;28;20505;-75
2022/11/10 07:02:15;;;;;;;62.90;34.13;;;;;;;-141.28;100.00;51567.00;5111732;28;20453;-77
2022/11/10 07:04:42;;;;;;;61.80;31.67;;;;;;;-141.28;100.00;51596.44;5111366;28;20487;-78
2022/11/10 07:07:10;;;;;;;66.50;34.07;;;;;;;-141.28;100.00;51590.56;5111089;28;20488;-75
2022/11/10 07:09:39;;;;;;;62.37;30.87;;;;;;;-141.28;100.00;51565.03;5111716;28;20449;-75
2022/11/10 07:12:06;;;;;;;57.47;32.27;;;;;;;-141.28;100.00;51594.47;5111385;28;20455;-77
2022/11/10 07:14:33;;;;;;;71.27;34.57;;;;;;;-141.28;100.00;51782.97;5111683;28;20452;-75
2022/11/10 07:17:00;;;;;;;83.37;42.17;;;;;;;-141.28;100.00;51944.00;5110482;28;20508;-77
2022/11/10 07:19:28;;;;;;;73.37;36.90;;;;;;;-141.28;100.00;52065.75;5111613;28;20433;-79
2022/11/10 07:21:55;;;;;;;66.73;36.20;;;;;;;-141.28;100.00;52018.63;5111083;28;20501;-75
2022/11/10 07:24:22;;;;;;;74.33;35.93;;;;;;;-141.28;100.00;51999.00;5111236;28;20514;-76
2022/11/10 07:26:50;;;;;;;75.03;36.00;;;;;;;-141.28;100.00;51987.22;5110887;28;20460;-76
2022/11/10 07:29:17;;;;;;;66.73;36.30;;;;;;;-141.28;100.00;51977.38;5110151;28;20500;-78
2022/11/10 07:31:44;;;;;;;68.97;37.27;;;;;;;-141.28;100.00;51653.38;5110877;28;20451;-77
2022/11/10 07:34:11;;;;;;;66.53;35.23;;;;;;;-141.28;100.00;51704.44;5111139;28;20982;-76
2022/11/10 07:36:38;;;;;;;69.90;32.20;;;;;;;-141.28;100.00;51777.09;5097482;28;20453;-76
2022/11/10 07:39:05;;;;;;;53.20;30.63;;;;;;;-141.28;100.00;51731.94;5113717;28;20456;-77
2022/11/10 07:41:32;;;;;;;55.47;31.03;;;;;;;-141.28;100.00;51610.19;5102373;28;20486;-76
2022/11/10 07:44:01;;;;;;;50.80;28.43;;;;;;;-141.28;100.00;51492.38;5114418;28;20496;-78
2022/11/10 07:46:28;;;;;;;55.10;28.20;;;;;;;-141.28;100.00;51358.88;5114769;28;20195;-76
2022/11/10 07:48:55;;;;;;;48.83;27.53;;;;;;;-141.28;100.00;51294.06;5114091;28;20669;-76
2022/11/10 07:51:21;;;;;;;52.17;26.43;;;;;;;-141.28;100.00;51246.97;5116196;28;20195;-79
2022/11/10 07:53:48;;;;;;;43.37;25.90;;;;;;;-141.28;100.00;51201.81;5114720;28;20207;-76
2022/11/10 07:56:15;;;;;;;46.20;25.47;;;;;;;-141.28;100.00;51123.28;5115500;28;20210;-76
2022/11/10 07:58:42;;;;;;;43.97;25.67;;;;;;;-141.28;100.00;51099.72;5115803;28;20199;-76
2022/11/10 08:01:11;;;;;;;45.07;25.03;;;;;;;-141.28;100.00;51113.44;5108048;28;20286;-77
2022/11/10 08:03:38;;;;;;;42.30;24.40;;;;;;;-141.28;100.00;51021.19;5111753;28;20223;-77
2022/11/10 08:06:06;;;;;;;41.13;24.17;;;;;;;-141.28;100.00;50911.25;5114852;28;20202;-78
2022/11/10 08:08:33;;;;;;;46.27;26.33;;;;;;;-141.28;100.00;50954.44;5113501;28;20261;-76
2022/11/10 08:11:00;;;;;;;52.83;24.27;;;;;;;-141.28;100.00;50917.13;5113820;28;20250;-77
2022/11/10 08:13:27;;;;;;;45.87;26.13;;;;;;;-141.28;100.00;50871.97;5113949;28;20669;-76
2022/11/10 08:15:56;;;;;;;48.40;26.30;;;;;;;-141.28;100.00;50809.16;5114790;28;20233;-76
2022/11/10 08:18:24;;;;;;;44.23;27.83;;;;;;;-141.28;100.00;50742.41;5114385;28;20310;-77
2022/11/10 08:20:51;;;;;;;55.97;28.20;;;;;;;-141.28;100.00;50620.72;5113797;28;20210;-78
2022/11/10 08:23:18;;;;;;;51.77;28.27;;;;;;;-141.28;100.00;50508.81;5113572;28;20206;-79
2022/11/10 08:25:46;;;;;;;50.60;28.30;;;;;;;-141.28;100.00;50447.97;5113905;28;20206;-76
2022/11/10 08:28:16;;;;;;;48.83;30.33;;;;;;;-141.28;100.00;50373.38;5112557;28;20260;-78
2022/11/10 08:30:45;;;;;;;56.17;31.27;;;;;;;-141.28;100.00;50330.22;5113828;28;20203;-75
2022/11/10 08:33:13;;;;;;;70.00;37.50;;;;;;;-141.28;100.00;50294.88;5113196;28;20203;-76
2022/11/10 08:35:44;;;;;;;58.67;33.33;;;;;;;-141.28;100.00;50287.03;5113710;28;20309;-79
2022/11/10 08:38:13;;;;;;;61.50;35.50;;;;;;;-141.28;100.00;50259.56;5113499;28;20587;-77
2022/11/10 08:40:40;;;;;;;55.37;35.30;;;;;;;-141.28;100.00;50241.88;5113755;28;20210;-76
2022/11/10 08:43:09;;;;;;;57.87;34.80;;;;;;;-141.28;100.00;50133.94;5113297;28;20199;-76
2022/11/10 08:45:36;;;;;;;64.37;38.30;;;;;;;-141.28;100.00;50226.19;5113161;28;20280;-76
2022/11/10 08:48:05;;;;;;;60.27;37.20;;;;;;;-141.28;100.00;50224.22;5113546;28;20202;-76
2022/11/10 08:50:32;;;;;;;74.17;38.30;;;;;;;-141.28;100.00;50171.22;5112075;28;20626;-76
2022/11/10 08:53:03;;;;;;;71.33;39.17;;;;;;;-141.28;100.00;50228.16;5115280;28;20630;-75
2022/11/10 08:55:30;;;;;;;92.00;41.10;;;;;;;-141.28;100.00;50239.94;5113780;28;20280;-78
2022/11/10 08:58:01;;;;;;;76.73;41.50;;;;;;;-141.28;100.00;50263.47;5113571;28;20213;-76
2022/11/10 09:00:28;;;;;;;75.77;39.87;;;;;;;-141.28;100.00;50192.81;5113098;28;20211;-75
2022/11/10 09:02:55;;;;;;;75.07;41.87;;;;;;;-141.28;100.00;50290.97;5113242;28;20195;-75
2022/11/10 09:05:22;;;;;;;80.67;42.80;;;;;;;-141.28;100.00;50306.66;5112558;28;20223;-77
2022/11/10 09:07:50;;;;;;;88.00;43.37;;;;;;;-141.28;100.00;50304.69;5113114;28;20255;-77
2022/11/10 09:10:18;;;;;;;75.23;41.73;;;;;;;-141.28;100.00;50322.34;5113043;28;20295;-77
2022/11/10 09:12:45;;;;;;;82.57;40.97;;;;;;;-141.28;100.00;50322.34;5113055;28;20199;-76
2022/11/10 09:15:13;;;;;;;76.63;40.40;;;;;;;-141.28;100.00;50314.50;5099439;28;20221;-75
2022/11/10 09:17:40;;;;;;;73.40;40.57;;;;;;;-141.28;100.00;50316.47;5113513;28;20654;-77
2022/11/10 09:20:10;;;;;;;75.60;40.07;;;;;;;-141.28;100.00;50373.38;5111473;28;20245;-75
2022/11/10 09:22:37;;;;;;;77.37;40.40;;;;;;;-141.28;100.00;50298.81;5105561;28;20285;-76
2022/11/10 09:25:05;;;;;;;84.27;42.23;;;;;;;-141.28;100.00;50369.47;5112590;28;20660;-76
2022/11/10 09:27:37;;;;;;;77.47;41.10;;;;;;;-141.28;100.00;50393.03;5112580;28;20268;-78
2022/11/10 09:30:04;;;;;;;74.63;40.60;;;;;;;-141.28;100.00;50389.09;5111110;28;20633;-76
2022/11/10 09:32:32;;;;;;;67.57;39.30;;;;;;;-141.28;100.00;50434.25;5112764;28;20671;-76
2022/11/10 09:34:59;;;;;;;74.43;41.63;;;;;;;-141.28;100.00;50440.13;5112542;28;20203;-76
2022/11/10 09:37:27;;;;;;;69.03;40.43;;;;;;;-141.28;100.00;50459.75;5112402;28;20282;-76
2022/11/10 09:39:54;;;;;;;68.27;38.27;;;;;;;-141.28;100.00;50440.13;5110906;28;20225;-77
2022/11/10 09:42:30;;;;;;;65.43;36.23;;;;;;;-141.28;100.00;50526.50;5112340;28;20446;-76
2022/11/10 09:45:02;;;;;;;60.53;37.03;;;;;;;-141.28;100.00;50548.09;5112547;28;20237;-76
2022/11/10 09:47:38;;;;;;;64.90;38.90;;;;;;;-141.28;100.00;50559.88;5114452;28;20199;-76
2022/11/10 09:50:07;;;;;;;65.90;35.60;;;;;;;-141.28;100.00;50585.38;5115220;28;20203;-77
2022/11/10 09:52:36;;;;;;;61.33;36.07;;;;;;;-141.28;100.00;50585.38;5113775;28;20195;-76
2022/11/10 09:55:18;;;;;;;54.83;35.13;;;;;;;-141.28;100.00;50534.34;5112220;28;20268;-80
2022/11/10 09:57:48;;;;;;;57.83;34.83;;;;;;;-141.28;100.00;50499.00;5112025;28;20307;-76
2022/11/10 10:00:18;;;;;;;58.50;35.47;;;;;;;-141.28;100.00;50432.28;5112339;28;20666;-77
2022/11/10 10:02:51;;;;;;;59.83;34.90;;;;;;;-141.28;100.00;50479.38;5111863;28;20198;-76
2022/11/10 10:05:40;;;;;;;58.83;35.40;;;;;;;-141.28;100.00;50608.94;5112170;28;20234;-77
2022/11/10 10:08:10;;;;;;;49.47;32.97;;;;;;;-141.28;100.00;50724.75;5102748;28;20221;-76
2022/11/10 10:10:41;;;;;;;55.47;34.53;;;;;;;-141.28;100.00;50789.53;5116562;28;20218;-76
2022/11/10 10:13:37;;;;;;;59.53;34.17;;;;;;;-141.28;100.00;51013.31;5113983;28;20686;-80
2022/11/10 10:16:17;;;;;;;53.43;33.77;;;;;;;-141.28;100.00;51195.91;5100599;28;20259;-76
2022/11/10 10:18:51;;;;;;;50.77;32.00;;;;;;;-141.28;100.00;51299.97;5108324;28;20203;-78
2022/11/10 10:21:44;;;;;;;50.83;32.47;;;;;;;-141.28;100.00;51696.59;5103921;28;20194;-77
2022/11/10 10:24:14;;;;;;;50.43;31.10;;;;;;;-141.28;100.00;51739.78;5097796;28;20253;-76
2022/11/10 10:26:48;;;;;;;54.40;33.63;;;;;;;-141.28;100.00;51798.69;5111973;28;20207;-77
2022/11/10 10:29:19;;;;;;;48.43;32.33;;;;;;;-141.28;100.00;51802.63;5111087;28;20195;-77
2022/11/10 10:31:49;;;;;;;46.83;32.27;;;;;;;-141.28;100.00;51790.84;5098625;28;20281;-75
2022/11/10 10:34:18;;;;;;;52.77;33.27;;;;;;;-141.28;100.00;51804.59;5112195;28;20292;-77
2022/11/10 10:36:45;;;;;;;54.87;34.93;;;;;;;-141.28;100.00;51771.19;5111920;28;20199;-78
2022/11/10 10:39:17;;;;;;;50.93;33.77;;;;;;;-141.28;100.00;51861.53;5115010;28;20230;-76
2022/11/10 10:41:45;;;;;;;53.40;32.93;;;;;;;-141.28;100.00;51720.16;5111795;28;20578;-75
2022/11/10 10:44:14;;;;;;;55.40;35.87;;;;;;;-141.28;100.00;51627.84;5111275;28;20226;-76
2022/11/10 10:46:52;;;;;;;49.50;32.17;;;;;;;-141.28;100.00;51694.63;5111372;28;20218;-77
2022/11/10 10:49:21;;;;;;;58.07;34.13;;;;;;;-141.28;100.00;51798.69;5111642;28;20194;-75
2022/11/10 10:52:01;;;;;;;55.23;34.87;;;;;;;-141.28;100.00;51853.69;5111546;28;20209;-78
2022/11/10 10:54:29;;;;;;;62.87;34.37;;;;;;;-141.28;100.00;51834.03;5111716;28;20199;-76
2022/11/10 10:57:21;;;;;;;55.23;35.43;;;;;;;-141.28;100.00;51743.72;5111185;28;20560;-75
2022/11/10 10:59:49;;;;;;;55.33;35.70;;;;;;;-141.28;100.00;51657.31;5112291;28;20206;-78
2022/11/10 11:02:29;;;;;;;53.23;34.37;;;;;;;-141.28;100.00;51543.44;5112210;28;20195;-79
2022/11/10 11:05:13;;;;;;;49.30;33.90;;;;;;;-141.28;100.00;51653.38;5113599;28;20700;-77
2022/11/10 11:07:41;;;;;;;50.33;32.60;;;;;;;-141.28;100.00;51637.69;5102096;28;20684;-76
2022/11/10 11:10:23;;;;;;;51.33;33.97;;;;;;;-141.28;100.00;51582.69;5113419;28;20240;-78
2022/11/10 11:12:50;;;;;;;48.93;32.90;;;;;;;-141.28;100.00;51453.09;5110724;28;20226;-76
2022/11/10 11:15:25;;;;;;;50.60;33.50;;;;;;;-141.28;100.00;51390.28;5116491;28;20580;-77
2022/11/10 11:17:59;;;;;;;51.83;35.13;;;;;;;-141.28;100.00;51354.94;5116664;28;20229;-78
2022/11/10 11:20:36;;;;;;;51.70;33.93;;;;;;;-141.28;100.00;51335.31;5104174;28;20202;-76
2022/11/10 11:23:11;;;;;;;50.13;33.13;;;;;;;-141.28;100.00;51154.69;5117020;28;20207;-76
2022/11/10 11:25:43;;;;;;;55.20;33.80;;;;;;;-141.28;100.00;51197.88;5116453;28;20222;-77